Time;durP1;ratioP1;P1;durP2;ratioP2;P2;SDS_P1;SDS_P2;PMS_P1;PMS_P2;Temp;Humidity;BMP_temperature;BMP_pressure;BME280_temperature;BME280_humidity;BME280_pressure;Samples;Min_cycle;Max_cycle;Signal;HPM_P1;HPM_P2
2023/08/29 00:01:47;;;;;;;3.72;1.42;;;;;;;13.70;100.00;100458.81;4996109;28;20028;-94
2023/08/29 00:04:14;;;;;;;3.22;1.30;;;;;;;13.61;100.00;100464.63;4996148;28;20027;-92
2023/08/29 00:06:39;;;;;;;5.38;1.38;;;;;;;13.63;100.00;100457.56;4996010;28;20022;-93
2023/08/29 00:09:05;;;;;;;3.22;1.48;;;;;;;13.60;100.00;100457.78;4993679;28;20033;-93
2023/08/29 00:11:30;;;;;;;3.72;1.15;;;;;;;13.64;100.00;100453.22;4995827;28;20033;-93
2023/08/29 00:13:56;;;;;;;3.65;1.67;;;;;;;13.64;100.00;100459.22;4995780;28;20539;-92
2023/08/29 00:16:22;;;;;;;2.53;1.13;;;;;;;13.65;100.00;100460.88;4995709;28;20026;-93
2023/08/29 00:18:47;;;;;;;4.95;1.65;;;;;;;13.62;100.00;100455.91;4994723;28;20026;-92
2023/08/29 00:21:13;;;;;;;4.22;1.48;;;;;;;13.48;100.00;100454.28;4995623;28;20057;-92
2023/08/29 00:23:38;;;;;;;4.55;1.70;;;;;;;13.54;100.00;100447.84;4995822;28;20468;-93
2023/08/29 00:26:03;;;;;;;2.33;1.30;;;;;;;13.59;100.00;100450.13;4995798;28;20109;-93
2023/08/29 00:28:29;;;;;;;3.05;1.08;;;;;;;13.56;100.00;100445.97;4994982;28;20050;-93
2023/08/29 00:30:54;;;;;;;4.28;1.10;;;;;;;13.44;100.00;100437.28;4995675;28;20034;-93
2023/08/29 00:33:20;;;;;;;1.85;1.00;;;;;;;13.48;100.00;100443.06;4994223;28;20026;-93
2023/08/29 00:35:46;;;;;;;2.53;1.20;;;;;;;13.34;100.00;100430.22;4995591;28;20030;-94
2023/08/29 00:38:11;;;;;;;3.10;1.10;;;;;;;13.39;100.00;100423.81;4993622;28;20037;-93
2023/08/29 00:40:37;;;;;;;2.00;1.10;;;;;;;13.40;100.00;100429.81;4995224;28;20027;-93
2023/08/29 00:43:02;;;;;;;2.88;1.38;;;;;;;13.38;100.00;100429.09;4994096;28;20057;-93
2023/08/29 00:45:31;;;;;;;7.10;1.70;;;;;;;13.29;100.00;100435.75;4995189;28;20018;-93
2023/08/29 00:47:57;;;;;;;2.25;1.00;;;;;;;13.25;100.00;100432.50;4987504;28;20118;-94
2023/08/29 00:50:23;;;;;;;3.60;1.35;;;;;;;13.18;100.00;100422.66;4974305;28;20110;-93
2023/08/29 00:52:50;;;;;;;2.45;1.10;;;;;;;13.17;100.00;100424.44;4974480;28;20398;-94
2023/08/29 00:55:16;;;;;;;2.53;0.95;;;;;;;13.20;100.00;100419.03;4975898;28;20022;-93
2023/08/29 00:57:42;;;;;;;3.55;1.48;;;;;;;13.10;100.00;100418.00;4978036;28;20033;-92
2023/08/29 01:00:08;;;;;;;2.65;0.90;;;;;;;13.10;100.00;100423.19;4995074;28;20092;-92
2023/08/29 01:02:33;;;;;;;1.48;1.05;;;;;;;13.03;100.00;100427.13;4993164;28;20077;-93
2023/08/29 01:04:59;;;;;;;3.03;1.30;;;;;;;13.11;100.00;100421.41;4993615;28;20030;-92
2023/08/29 01:07:24;;;;;;;1.15;0.82;;;;;;;13.06;100.00;100419.16;4992642;28;20026;-93
2023/08/29 01:09:50;;;;;;;5.70;1.30;;;;;;;13.07;100.00;100429.41;4994663;28;20030;-93
2023/08/29 01:12:17;;;;;;;2.72;0.88;;;;;;;13.14;100.00;100427.22;4994838;28;20030;-93
2023/08/29 01:15:03;;;;;;;1.33;0.98;;;;;;;13.16;100.00;100433.13;4993443;28;20025;-93
2023/08/29 01:17:37;;;;;;;2.33;0.80;;;;;;;13.24;100.00;100428.25;4992563;28;20507;-93
2023/08/29 01:20:05;;;;;;;1.77;1.05;;;;;;;13.21;100.00;100423.25;4993297;28;20023;-92
2023/08/29 01:22:58;;;;;;;5.72;1.30;;;;;;;13.09;100.00;100424.09;4994463;28;20033;-93
2023/08/29 01:25:51;;;;;;;3.58;1.10;;;;;;;12.98;100.00;100430.03;4994375;28;20026;-93
2023/08/29 01:28:19;;;;;;;2.70;1.30;;;;;;;13.16;100.00;100430.53;4993622;28;20026;-93
2023/08/29 01:30:45;;;;;;;1.15;0.80;;;;;;;13.09;100.00;100418.09;4994518;28;20085;-92
2023/08/29 01:33:11;;;;;;;3.15;0.98;;;;;;;13.07;100.00;100423.41;4993106;28;20034;-93
2023/08/29 01:35:43;;;;;;;2.10;0.77;;;;;;;13.20;100.00;100420.81;4994483;28;20039;-92
2023/08/29 01:38:09;;;;;;;1.38;0.68;;;;;;;13.13;100.00;100428.16;4993825;28;20044;-93
2023/08/29 01:40:34;;;;;;;2.45;1.00;;;;;;;13.14;100.00;100421.19;4994002;28;20105;-93
2023/08/29 01:42:59;;;;;;;1.27;0.93;;;;;;;13.16;100.00;100420.16;4992900;28;20026;-92
2023/08/29 01:45:25;;;;;;;2.40;0.82;;;;;;;13.10;100.00;100412.81;4994139;28;20026;-92
2023/08/29 01:47:50;;;;;;;1.75;1.23;;;;;;;13.22;100.00;100419.75;4993337;28;20028;-93
2023/08/29 01:50:18;;;;;;;1.85;0.70;;;;;;;13.22;100.00;100418.94;4994098;28;20491;-93
2023/08/29 01:52:43;;;;;;;4.38;0.75;;;;;;;13.24;100.00;100410.13;4993978;28;20018;-93
2023/08/29 01:55:09;;;;;;;5.97;0.85;;;;;;;13.14;100.00;100403.88;4994049;28;20113;-92
2023/08/29 01:57:35;;;;;;;1.38;0.90;;;;;;;13.14;100.00;100403.88;4992318;28;20034;-93
2023/08/29 02:00:03;;;;;;;2.15;0.88;;;;;;;13.12;100.00;100403.19;4988466;28;20396;-92
2023/08/29 02:02:29;;;;;;;1.67;1.00;;;;;;;13.15;100.00;100408.16;4993951;28;20031;-93
2023/08/29 02:04:54;;;;;;;0.95;0.68;;;;;;;13.19;100.00;100408.75;4992519;28;20033;-93
2023/08/29 02:07:19;;;;;;;1.77;0.88;;;;;;;13.21;100.00;100409.47;4993880;28;20035;-93
2023/08/29 02:09:45;;;;;;;2.08;0.57;;;;;;;13.23;100.00;100408.44;4991935;28;20037;-93
2023/08/29 02:12:10;;;;;;;1.83;1.00;;;;;;;13.25;100.00;100403.16;4991114;28;20626;-93
2023/08/29 02:14:35;;;;;;;0.85;0.60;;;;;;;13.28;100.00;100405.56;4993072;28;20026;-92
2023/08/29 02:17:01;;;;;;;3.08;0.68;;;;;;;13.35;100.00;100411.16;4993546;28;20109;-93
2023/08/29 02:19:28;;;;;;;3.83;0.70;;;;;;;13.27;100.00;100407.34;4992466;28;20042;-94
2023/08/29 02:21:53;;;;;;;0.98;0.50;;;;;;;13.33;100.00;100410.44;4992026;28;20026;-93
2023/08/29 02:24:18;;;;;;;1.17;0.68;;;;;;;13.29;100.00;100412.44;4993638;28;20030;-93
2023/08/29 02:26:44;;;;;;;1.50;0.70;;;;;;;13.23;100.00;100398.06;4993404;28;20026;-92
2023/08/29 02:29:09;;;;;;;2.28;0.63;;;;;;;13.23;100.00;100411.03;4990684;28;20026;-93
2023/08/29 02:31:35;;;;;;;1.90;0.70;;;;;;;13.23;100.00;100403.25;4993297;28;20033;-93
2023/08/29 02:34:00;;;;;;;2.78;0.40;;;;;;;13.23;100.00;100411.03;4993256;28;20101;-93
2023/08/29 02:36:26;;;;;;;1.15;0.68;;;;;;;13.31;100.00;100414.91;4992198;28;20037;-93
2023/08/29 02:38:53;;;;;;;2.53;0.70;;;;;;;13.22;100.00;100411.16;4990664;28;20117;-93
2023/08/29 02:41:18;;;;;;;3.90;0.90;;;;;;;13.22;100.00;100411.97;4991634;28;20034;-93
2023/08/29 02:43:44;;;;;;;2.17;0.70;;;;;;;13.21;100.00;100405.13;4993291;28;20023;-94
2023/08/29 02:46:09;;;;;;;2.60;0.65;;;;;;;13.23;100.00;100403.25;4992481;28;20025;-92
2023/08/29 02:48:35;;;;;;;1.77;0.70;;;;;;;13.28;100.00;100396.03;4992484;28;20113;-93
2023/08/29 02:51:00;;;;;;;1.75;0.80;;;;;;;13.26;100.00;100397.88;4991663;28;20057;-93
2023/08/29 02:53:26;;;;;;;4.43;0.80;;;;;;;13.29;100.00;100396.88;4992878;28;20084;-94
2023/08/29 02:55:52;;;;;;;2.92;0.70;;;;;;;13.24;100.00;100389.38;4991919;28;20489;-93
2023/08/29 02:58:19;;;;;;;1.40;0.60;;;;;;;13.31;100.00;100388.97;4991132;28;20552;-93
2023/08/29 03:00:44;;;;;;;0.93;0.55;;;;;;;13.27;100.00;100386.59;4992724;28;20030;-92
2023/08/29 03:03:10;;;;;;;2.85;0.70;;;;;;;13.19;100.00;100375.91;4992013;28;20023;-93
2023/08/29 03:05:35;;;;;;;1.08;0.47;;;;;;;13.19;100.00;100378.50;4991597;28;20088;-93
2023/08/29 03:08:04;;;;;;;1.70;0.85;;;;;;;13.13;100.00;100371.16;4992780;28;20421;-93
2023/08/29 03:10:31;;;;;;;2.88;0.90;;;;;;;13.22;100.00;100370.50;4992792;28;20030;-93
2023/08/29 03:12:56;;;;;;;3.80;0.70;;;;;;;13.18;100.00;100363.06;4991703;28;20477;-92
2023/08/29 03:15:22;;;;;;;1.67;0.60;;;;;;;13.18;100.00;100363.06;4992540;28;20026;-92
2023/08/29 03:17:48;;;;;;;2.05;0.60;;;;;;;13.10;100.00;100363.59;4991370;28;20473;-93
2023/08/29 03:20:14;;;;;;;1.15;0.60;;;;;;;13.22;100.00;100354.97;4992612;28;20057;-93
2023/08/29 03:22:40;;;;;;;1.50;0.77;;;;;;;13.27;100.00;100354.69;4992541;28;20030;-93
2023/08/29 03:25:05;;;;;;;4.00;0.60;;;;;;;13.32;100.00;100349.19;4991522;28;20037;-92
2023/08/29 03:27:31;;;;;;;3.47;0.77;;;;;;;13.22;100.00;100344.59;4992482;28;20019;-93
2023/08/29 03:29:57;;;;;;;1.48;0.55;;;;;;;13.18;100.00;100345.75;4992314;28;20476;-93
2023/08/29 03:32:23;;;;;;;2.20;0.60;;;;;;;13.18;100.00;100343.16;4992902;28;20030;-93
2023/08/29 03:34:53;;;;;;;1.27;0.60;;;;;;;13.15;100.00;100338.19;4991651;28;20481;-93
2023/08/29 03:37:18;;;;;;;5.93;0.80;;;;;;;13.15;100.00;100332.19;4991210;28;20057;-92
2023/08/29 03:39:44;;;;;;;1.20;0.40;;;;;;;13.15;100.00;100332.19;4991067;28;20061;-92
2023/08/29 03:42:09;;;;;;;2.58;0.77;;;;;;;13.09;100.00;100330.81;4991188;28;20022;-94
2023/08/29 03:44:35;;;;;;;2.25;0.90;;;;;;;13.13;100.00;100321.09;4991954;28;20034;-93
2023/08/29 03:47:00;;;;;;;1.77;0.60;;;;;;;13.23;100.00;100328.09;4992454;28;20387;-92
2023/08/29 03:49:25;;;;;;;3.47;0.80;;;;;;;13.28;100.00;100323.44;4992442;28;20026;-92
2023/08/29 03:51:51;;;;;;;1.90;0.75;;;;;;;13.30;100.00;100325.13;4992321;28;20019;-93
2023/08/29 03:54:16;;;;;;;0.60;0.40;;;;;;;13.25;100.00;100312.44;4988416;28;20396;-93
2023/08/29 03:56:43;;;;;;;1.15;0.60;;;;;;;13.22;100.00;100304.91;4984552;28;20030;-92
2023/08/29 03:59:09;;;;;;;0.85;0.50;;;;;;;13.27;100.00;100311.44;4992351;28;20037;-93
2023/08/29 04:01:34;;;;;;;0.90;0.52;;;;;;;13.23;100.00;100312.53;4992112;28;20372;-93
2023/08/29 04:03:59;;;;;;;2.15;0.60;;;;;;;13.30;100.00;100304.38;4989891;28;20049;-93
2023/08/29 04:06:26;;;;;;;1.27;0.50;;;;;;;13.39;100.00;100308.91;4990952;28;20025;-93
2023/08/29 04:08:52;;;;;;;3.25;0.70;;;;;;;13.34;100.00;100309.25;4990811;28;20030;-94
2023/08/29 04:11:17;;;;;;;1.75;0.45;;;;;;;13.34;100.00;100310.97;4992102;28;20022;-92
2023/08/29 04:13:42;;;;;;;2.28;0.32;;;;;;;13.17;100.00;100310.41;4984724;28;20122;-93
2023/08/29 04:16:08;;;;;;;2.03;0.80;;;;;;;13.08;100.00;100311.03;4971151;28;20049;-93
2023/08/29 04:18:33;;;;;;;1.02;0.65;;;;;;;13.00;100.00;100314.19;4971314;28;20035;-93
2023/08/29 04:20:59;;;;;;;1.85;0.38;;;;;;;13.12;100.00;100312.50;4972574;28;20098;-93
2023/08/29 04:23:25;;;;;;;2.08;0.90;;;;;;;13.08;100.00;100321.41;4975258;28;20481;-92
2023/08/29 04:25:57;;;;;;;2.03;0.90;;;;;;;13.06;100.00;100311.13;4991943;28;20030;-92
2023/08/29 04:28:22;;;;;;;2.40;0.90;;;;;;;13.08;100.00;100305.84;4991688;28;20033;-92
2023/08/29 04:30:47;;;;;;;3.63;0.82;;;;;;;13.08;100.00;100308.44;4991785;28;20022;-92
2023/08/29 04:33:13;;;;;;;3.65;0.60;;;;;;;13.01;100.00;100313.22;4991035;28;20030;-93
2023/08/29 04:35:38;;;;;;;3.28;0.80;;;;;;;13.02;100.00;100306.28;4991983;28;20029;-93
2023/08/29 04:38:04;;;;;;;1.83;0.70;;;;;;;13.04;100.00;100307.00;4995473;28;20023;-93
2023/08/29 04:40:29;;;;;;;1.30;0.80;;;;;;;13.03;100.00;100313.94;4994246;28;20037;-93
2023/08/29 04:42:54;;;;;;;2.47;0.80;;;;;;;13.03;100.00;100318.31;4994019;28;20038;-92
2023/08/29 04:45:20;;;;;;;2.40;0.88;;;;;;;13.04;100.00;100312.19;4995357;28;20384;-92
2023/08/29 04:47:45;;;;;;;1.73;0.70;;;;;;;13.10;100.00;100314.34;4994020;28;20101;-93
2023/08/29 04:50:11;;;;;;;3.22;1.00;;;;;;;13.17;100.00;100310.41;4995004;28;20023;-93
2023/08/29 04:52:36;;;;;;;1.40;0.70;;;;;;;13.21;100.00;100311.00;4994216;28;20034;-93
2023/08/29 04:55:05;;;;;;;2.10;0.75;;;;;;;13.15;100.00;100307.09;4995091;28;20161;-93
2023/08/29 04:57:33;;;;;;;1.17;0.63;;;;;;;13.13;100.00;100302.94;4993887;28;20026;-93
2023/08/29 05:00:00;;;;;;;1.30;0.90;;;;;;;13.05;100.00;100298.31;4995126;28;20067;-93
2023/08/29 05:02:26;;;;;;;3.05;0.60;;;;;;;13.15;100.00;100301.91;4990909;28;20035;-92
2023/08/29 05:04:52;;;;;;;3.00;1.30;;;;;;;13.08;100.00;100295.50;4993494;28;20046;-93
2023/08/29 05:07:18;;;;;;;0.93;0.70;;;;;;;13.05;100.00;100296.53;4995026;28;20027;-93
2023/08/29 05:09:43;;;;;;;2.97;1.48;;;;;;;13.07;100.00;100306.81;4993385;28;20033;-93
2023/08/29 05:12:10;;;;;;;2.30;0.68;;;;;;;13.03;100.00;100313.13;4993820;28;20050;-93
2023/08/29 05:14:37;;;;;;;1.80;0.70;;;;;;;13.01;100.00;100315.81;4994676;28;20468;-94
2023/08/29 05:17:03;;;;;;;0.95;0.70;;;;;;;13.14;100.00;100310.59;4993424;28;20026;-93
2023/08/29 05:19:28;;;;;;;1.27;0.50;;;;;;;13.19;100.00;100305.94;4994746;28;20026;-92
2023/08/29 05:21:54;;;;;;;0.85;0.50;;;;;;;13.13;100.00;100310.72;4993745;28;20026;-93
2023/08/29 05:24:19;;;;;;;1.67;0.57;;;;;;;13.11;100.00;100305.63;4993258;28;20030;-93
2023/08/29 05:26:45;;;;;;;1.60;0.73;;;;;;;13.15;100.00;100304.50;4994588;28;20062;-93
2023/08/29 05:29:10;;;;;;;2.28;0.98;;;;;;;13.18;100.00;100296.50;4994307;28;20481;-93
2023/08/29 05:31:36;;;;;;;2.47;0.95;;;;;;;13.21;100.00;100309.22;4988952;28;20037;-93
2023/08/29 05:34:02;;;;;;;1.55;0.70;;;;;;;13.22;100.00;100307.50;4994227;28;20018;-94
2023/08/29 05:36:27;;;;;;;3.47;0.73;;;;;;;13.26;100.00;100312.34;4989461;28;20077;-92
2023/08/29 05:38:52;;;;;;;1.42;0.90;;;;;;;13.27;100.00;100319.22;4980071;28;20046;-92
2023/08/29 05:41:18;;;;;;;2.40;0.75;;;;;;;13.23;100.00;100317.72;4985700;28;20084;-91
2023/08/29 05:43:43;;;;;;;1.35;0.80;;;;;;;13.17;100.00;100323.38;4991078;28;20061;-92
2023/08/29 05:46:08;;;;;;;2.58;1.33;;;;;;;13.11;100.00;100323.78;4974937;28;20078;-91
2023/08/29 05:48:34;;;;;;;1.92;0.90;;;;;;;13.14;100.00;100318.38;4979346;28;20080;-92
2023/08/29 05:50:59;;;;;;;2.05;0.85;;;;;;;13.22;100.00;100323.88;4994566;28;20035;-93
2023/08/29 05:53:25;;;;;;;6.70;0.93;;;;;;;13.23;100.00;100324.69;4989888;28;20027;-93
2023/08/29 05:55:50;;;;;;;1.27;0.65;;;;;;;13.25;100.00;100322.81;4989774;28;20023;-94
2023/08/29 05:58:16;;;;;;;1.70;0.82;;;;;;;13.23;100.00;100320.31;4984049;28;20117;-94
2023/08/29 06:00:41;;;;;;;2.10;0.90;;;;;;;13.28;100.00;100318.25;5014076;28;20062;-95
2023/08/29 06:03:07;;;;;;;3.63;1.15;;;;;;;13.31;100.00;100306.03;4972654;28;20533;-91
2023/08/29 06:05:33;;;;;;;1.40;0.90;;;;;;;13.42;100.00;100316.47;4974336;28;20041;-92
2023/08/29 06:08:02;;;;;;;3.97;1.42;;;;;;;13.42;100.00;100314.69;4979147;28;20081;-91
2023/08/29 06:10:28;;;;;;;2.03;0.85;;;;;;;13.48;100.00;100318.63;4979424;28;20030;-92
2023/08/29 06:12:54;;;;;;;1.10;0.70;;;;;;;13.45;100.00;100319.66;4981224;28;20085;-91
2023/08/29 06:15:19;;;;;;;2.88;0.95;;;;;;;13.57;100.00;100323.16;4973056;28;20046;-94
2023/08/29 06:17:45;;;;;;;2.28;1.02;;;;;;;13.52;100.00;100324.41;4979500;28;20030;-94
2023/08/29 06:20:11;;;;;;;2.45;1.00;;;;;;;13.57;100.00;100325.75;4976229;28;20031;-92
2023/08/29 06:22:37;;;;;;;2.45;0.90;;;;;;;13.55;100.00;100325.00;4972116;28;20054;-94
2023/08/29 06:25:04;;;;;;;1.58;0.90;;;;;;;13.57;100.00;100323.16;4983964;28;20018;-92
2023/08/29 06:27:29;;;;;;;1.65;0.80;;;;;;;13.55;100.00;100309.47;5022642;28;20034;-92
2023/08/29 06:29:55;;;;;;;2.22;1.10;;;;;;;13.51;100.00;100313.22;4988690;28;20393;-91
2023/08/29 06:32:20;;;;;;;1.58;0.85;;;;;;;13.53;100.00;100319.09;4971931;28;20027;-91
2023/08/29 06:34:46;;;;;;;3.45;1.05;;;;;;;13.56;100.00;100311.13;4983687;28;20070;-92
2023/08/29 06:37:11;;;;;;;3.33;1.02;;;;;;;13.63;100.00;100316.69;4982345;28;20420;-93
2023/08/29 06:39:36;;;;;;;3.80;1.65;;;;;;;13.65;100.00;100320.81;4989675;28;20488;-95
2023/08/29 06:42:02;;;;;;;2.90;0.98;;;;;;;13.73;100.00;100316.84;4981454;28;20026;-95
2023/08/29 06:44:27;;;;;;;2.90;1.38;;;;;;;13.78;100.00;100325.16;4988599;28;20038;-94
2023/08/29 06:46:53;;;;;;;2.95;1.58;;;;;;;13.79;100.00;100326.78;5015014;28;20026;-92
2023/08/29 06:49:18;;;;;;;4.38;1.30;;;;;;;13.88;100.00;100328.72;4993009;28;20477;-94
2023/08/29 06:52:33;;;;;;;2.65;1.17;;;;;;;13.99;100.00;100315.75;4991839;28;20385;-94
2023/08/29 06:55:06;;;;;;;3.10;1.65;;;;;;;14.03;100.00;100317.22;4975924;28;20061;-94
2023/08/29 06:57:31;;;;;;;1.63;1.08;;;;;;;14.09;100.00;100319.38;4992229;28;20034;-94
2023/08/29 07:00:00;;;;;;;5.25;1.40;;;;;;;14.18;100.00;100317.84;4992007;28;20038;-94
2023/08/29 07:02:25;;;;;;;5.22;1.45;;;;;;;14.23;100.00;100312.31;4991320;28;20120;-93
2023/08/29 07:04:51;;;;;;;2.95;1.45;;;;;;;14.37;100.00;100312.09;4992606;28;20173;-93
2023/08/29 07:07:16;;;;;;;6.68;2.05;;;;;;;14.55;100.00;100308.13;4991179;28;20029;-93
2023/08/29 07:09:43;;;;;;;4.05;1.50;;;;;;;14.57;100.00;100312.38;4998970;28;20552;-93
2023/08/29 07:12:08;;;;;;;3.63;2.17;;;;;;;14.72;100.00;100306.00;4989614;28;20038;-93
2023/08/29 07:14:34;;;;;;;8.95;3.50;;;;;;;14.68;100.00;100313.22;4991662;28;20396;-92
2023/08/29 07:16:59;;;;;;;7.68;3.33;;;;;;;14.76;100.00;100320.44;4992429;28;20026;-92
2023/08/29 07:19:25;;;;;;;6.30;3.50;;;;;;;14.90;100.00;100320.19;4992487;28;20030;-92
2023/08/29 07:21:50;;;;;;;4.95;3.58;;;;;;;14.97;100.00;100323.97;4991751;28;20022;-94
2023/08/29 07:24:15;;;;;;;4.57;3.17;;;;;;;15.10;100.00;100320.41;4983767;28;20484;-93
2023/08/29 07:26:41;;;;;;;8.45;3.33;;;;;;;15.18;100.00;100315.44;4985873;28;20026;-92
2023/08/29 07:29:06;;;;;;;5.60;3.20;;;;;;;15.36;100.00;100315.75;4985350;28;20121;-93
2023/08/29 07:31:31;;;;;;;5.82;4.03;;;;;;;15.51;100.00;100316.28;4975021;28;20090;-92
2023/08/29 07:33:57;;;;;;;6.95;3.33;;;;;;;15.56;100.00;100316.78;4978194;28;20023;-93
2023/08/29 07:36:22;;;;;;;4.60;3.40;;;;;;;15.56;100.00;100290.75;4989100;28;20027;-92
2023/08/29 07:38:48;;;;;;;4.85;3.00;;;;;;;15.73;100.00;100303.25;4979227;28;20550;-92
2023/08/29 07:41:14;;;;;;;6.00;3.33;;;;;;;15.80;100.00;100307.00;4982587;28;20039;-93
2023/08/29 07:43:40;;;;;;;4.55;3.00;;;;;;;15.81;100.00;100300.03;4980672;28;20029;-93
2023/08/29 07:46:05;;;;;;;5.85;2.80;;;;;;;15.86;100.00;100302.25;4974509;28;20389;-92
2023/08/29 07:48:31;;;;;;;3.80;2.28;;;;;;;15.94;100.00;100302.44;4978814;28;20030;-93
2023/08/29 07:50:57;;;;;;;3.88;2.90;;;;;;;16.07;100.00;100305.69;4977124;28;20369;-93
2023/08/29 07:53:22;;;;;;;2.85;2.40;;;;;;;16.09;100.00;100298.56;4986082;28;20023;-94
2023/08/29 07:55:47;;;;;;;4.97;2.33;;;;;;;16.18;100.00;100308.22;4983547;28;20118;-94
2023/08/29 07:58:13;;;;;;;3.03;2.30;;;;;;;16.52;100.00;100304.59;4992177;28;20029;-93
2023/08/29 08:00:38;;;;;;;3.50;1.67;;;;;;;16.27;100.00;100306.66;4992568;28;20054;-95
2023/08/29 08:03:04;;;;;;;3.63;2.15;;;;;;;16.15;100.00;100302.47;4991518;28;20080;-95
2023/08/29 08:05:30;;;;;;;2.83;1.83;;;;;;;16.16;100.00;100297.09;4986090;28;20023;-95
2023/08/29 08:07:56;;;;;;;2.95;2.10;;;;;;;16.27;100.00;100302.25;4982861;28;20053;-95
2023/08/29 08:10:22;;;;;;;4.68;2.10;;;;;;;16.38;100.00;100287.50;4991929;28;20464;-95
2023/08/29 08:12:48;;;;;;;6.25;2.40;;;;;;;16.39;100.00;100291.78;4995497;28;20038;-95
2023/08/29 08:15:14;;;;;;;3.90;1.95;;;;;;;16.38;100.00;100292.72;4995070;28;20058;-95
2023/08/29 08:17:40;;;;;;;7.80;2.03;;;;;;;16.40;100.00;100288.19;4994661;28;20395;-96
2023/08/29 08:20:08;;;;;;;3.95;2.20;;;;;;;16.43;100.00;100293.16;4995135;28;20023;-95
2023/08/29 08:22:35;;;;;;;6.38;2.55;;;;;;;16.16;100.00;100288.47;4995014;28;20137;-95
2023/08/29 08:25:00;;;;;;;6.03;1.95;;;;;;;16.15;100.00;100292.03;4994941;28;20389;-95
2023/08/29 08:27:26;;;;;;;2.75;1.95;;;;;;;16.20;100.00;100292.47;4995125;28;20038;-94
2023/08/29 08:29:51;;;;;;;3.65;2.08;;;;;;;16.16;100.00;100281.47;4994688;28;20053;-94
2023/08/29 08:32:17;;;;;;;4.38;2.22;;;;;;;15.86;100.00;100277.06;4995151;28;20046;-94
2023/08/29 08:34:42;;;;;;;2.83;2.08;;;;;;;15.86;100.00;100281.44;4994800;28;20022;-95
2023/08/29 08:37:08;;;;;;;3.63;2.08;;;;;;;16.03;100.00;100280.88;4994749;28;20081;-94
2023/08/29 08:39:33;;;;;;;4.10;2.13;;;;;;;16.06;100.00;100283.22;4994672;28;20030;-96
2023/08/29 08:42:02;;;;;;;4.65;2.38;;;;;;;16.03;100.00;100280.88;4994442;28;20018;-95
2023/08/29 08:44:30;;;;;;;4.63;2.65;;;;;;;16.01;100.00;100285.38;4994697;28;20045;-95
2023/08/29 08:46:57;;;;;;;4.10;2.40;;;;;;;15.68;100.00;100294.97;4994849;28;20030;-96
2023/08/29 08:49:24;;;;;;;6.40;2.42;;;;;;;15.61;100.00;100293.81;4994475;28;20037;-96
2023/08/29 08:51:49;;;;;;;5.32;2.42;;;;;;;15.61;100.00;100299.84;4995557;28;20058;-95
2023/08/29 08:54:15;;;;;;;3.45;2.38;;;;;;;15.57;100.00;100297.59;4994417;28;20026;-95
2023/08/29 08:56:41;;;;;;;3.60;2.53;;;;;;;15.48;100.00;100293.94;4994655;28;20030;-95
2023/08/29 08:59:06;;;;;;;3.50;2.80;;;;;;;15.28;100.00;100292.94;4994538;28;20025;-95
2023/08/29 09:01:31;;;;;;;4.13;2.50;;;;;;;15.46;100.00;100297.63;4994465;28;20026;-95
2023/08/29 09:03:57;;;;;;;5.57;2.60;;;;;;;15.43;100.00;100295.28;4994227;28;20185;-95
2023/08/29 09:06:22;;;;;;;6.03;2.78;;;;;;;15.57;100.00;100292.41;4995599;28;20346;-95
2023/08/29 09:08:48;;;;;;;5.93;2.20;;;;;;;15.50;100.00;100292.06;4994256;28;20026;-94
2023/08/29 09:11:18;;;;;;;3.60;2.30;;;;;;;15.48;100.00;100290.53;4995437;28;20101;-94
2023/08/29 09:13:47;;;;;;;3.50;2.33;;;;;;;15.35;100.00;100291.50;4994046;28;20045;-94
2023/08/29 09:16:14;;;;;;;3.95;2.50;;;;;;;15.54;100.00;100287.44;4995263;28;20030;-94
2023/08/29 09:18:42;;;;;;;5.22;2.25;;;;;;;15.33;100.00;100292.59;4993942;28;20369;-94
2023/08/29 09:21:23;;;;;;;4.05;2.35;;;;;;;15.22;100.00;100285.66;4995249;28;20030;-95
2023/08/29 09:23:50;;;;;;;5.17;2.00;;;;;;;15.30;100.00;100285.03;4994084;28;20117;-95
2023/08/29 09:26:15;;;;;;;3.40;2.33;;;;;;;15.16;100.00;100279.16;4994392;28;20022;-95
2023/08/29 09:28:41;;;;;;;4.15;2.53;;;;;;;15.09;100.00;100284.94;4994346;28;20018;-95
2023/08/29 09:31:10;;;;;;;6.70;2.58;;;;;;;15.16;100.00;100280.94;4994248;28;20033;-95
2023/08/29 09:33:37;;;;;;;8.25;3.92;;;;;;;15.12;100.00;100276.94;4994618;28;20029;-95
2023/08/29 09:36:06;;;;;;;3.45;2.42;;;;;;;15.09;100.00;100279.75;4994082;28;20054;-95
2023/08/29 09:38:35;;;;;;;8.35;3.30;;;;;;;15.02;100.00;100282.03;4995618;28;20033;-95
2023/08/29 09:41:01;;;;;;;4.38;2.80;;;;;;;14.92;100.00;100274.13;4994442;28;20476;-95
2023/08/29 09:43:28;;;;;;;4.28;2.47;;;;;;;15.04;100.00;100274.09;4995276;28;20054;-94
2023/08/29 09:45:54;;;;;;;4.35;2.60;;;;;;;15.02;100.00;100275.97;4994956;28;20023;-95
2023/08/29 09:48:19;;;;;;;5.97;2.88;;;;;;;15.06;100.00;100272.22;4993786;28;20484;-95
2023/08/29 09:50:46;;;;;;;5.65;2.83;;;;;;;15.04;100.00;100274.09;4994013;28;20150;-95
2023/08/29 09:53:19;;;;;;;5.50;2.38;;;;;;;15.08;100.00;100265.13;4995143;28;20031;-95
2023/08/29 09:55:46;;;;;;;7.53;2.83;;;;;;;15.11;100.00;100270.06;4995447;28;20027;-94
2023/08/29 09:58:12;;;;;;;8.18;2.50;;;;;;;15.11;100.00;100265.69;4994867;28;20032;-95
2023/08/29 10:00:41;;;;;;;9.50;2.97;;;;;;;15.17;100.00;100269.59;4994478;28;20042;-95
2023/08/29 10:03:08;;;;;;;6.65;2.67;;;;;;;15.35;100.00;100257.72;4995817;28;20057;-95
2023/08/29 10:05:36;;;;;;;7.03;3.00;;;;;;;15.33;100.00;100259.59;4994215;28;20457;-96
2023/08/29 10:08:25;;;;;;;5.60;2.08;;;;;;;15.38;100.00;100257.44;4994277;28;20061;-94
2023/08/29 10:10:55;;;;;;;6.40;2.65;;;;;;;15.38;100.00;100247.06;4994202;28;20532;-95
2023/08/29 10:13:21;;;;;;;4.63;2.30;;;;;;;15.48;100.00;100247.13;4995173;28;20027;-96
2023/08/29 10:15:48;;;;;;;4.53;3.00;;;;;;;15.56;100.00;100238.72;4994004;28;20037;-96
2023/08/29 10:18:14;;;;;;;4.28;2.53;;;;;;;15.55;100.00;100243.09;4993796;28;20081;-94
2023/08/29 10:20:43;;;;;;;8.05;2.92;;;;;;;15.43;100.00;100248.47;4993379;28;20026;-95
2023/08/29 10:23:10;;;;;;;4.80;2.97;;;;;;;15.47;100.00;100236.88;4993201;28;20026;-95
2023/08/29 10:25:39;;;;;;;7.95;3.10;;;;;;;15.56;100.00;100229.16;4993838;28;20477;-95
2023/08/29 10:28:07;;;;;;;6.88;3.25;;;;;;;15.63;100.00;100230.28;4993982;28;20027;-94
2023/08/29 10:30:33;;;;;;;5.18;3.25;;;;;;;15.72;100.00;100223.53;4994089;28;20026;-96
2023/08/29 10:33:01;;;;;;;5.70;3.15;;;;;;;15.74;100.00;100221.63;4994188;28;20137;-96
2023/08/29 10:35:31;;;;;;;5.70;3.33;;;;;;;15.72;100.00;100223.53;4993507;28;20018;-95
2023/08/29 10:38:00;;;;;;;8.70;2.95;;;;;;;15.93;100.00;100226.13;4994039;28;20023;-95
2023/08/29 10:40:33;;;;;;;12.25;3.50;;;;;;;15.94;100.00;100229.56;4993896;28;20041;-96
2023/08/29 10:43:00;;;;;;;7.50;3.38;;;;;;;15.86;100.00;100229.38;4995375;28;20408;-95
2023/08/29 10:45:54;;;;;;;4.18;2.38;;;;;;;15.97;100.00;100226.69;4993754;28;20035;-95
2023/08/29 10:48:21;;;;;;;10.05;3.38;;;;;;;16.00;100.00;100223.84;4994926;28;20038;-95
2023/08/29 10:51:22;;;;;;;5.57;2.78;;;;;;;16.18;100.00;100222.28;4993506;28;20022;-95
2023/08/29 10:53:51;;;;;;;7.77;3.00;;;;;;;16.19;100.00;100220.50;4990033;28;20046;-96
2023/08/29 10:56:19;;;;;;;6.07;2.65;;;;;;;16.33;100.00;100221.94;4993872;28;20052;-95
2023/08/29 10:58:47;;;;;;;8.57;2.72;;;;;;;16.38;100.00;100223.19;4993676;28;20022;-95
2023/08/29 11:01:33;;;;;;;4.57;2.55;;;;;;;16.52;100.00;100219.44;4992937;28;20027;-95
2023/08/29 11:04:11;;;;;;;7.43;2.42;;;;;;;16.52;100.00;100219.44;4993315;28;20030;-96
2023/08/29 11:06:51;;;;;;;6.93;2.75;;;;;;;16.64;100.00;100215.75;4993958;28;20057;-94
2023/08/29 11:09:20;;;;;;;4.00;2.50;;;;;;;16.65;100.00;100217.44;4993412;28;20030;-95
2023/08/29 11:12:12;;;;;;;4.78;3.08;;;;;;;16.80;100.00;100217.06;4993099;28;20607;-95
2023/08/29 11:14:51;;;;;;;8.70;2.67;;;;;;;16.92;100.00;100212.56;4992853;28;20034;-95
2023/08/29 11:17:23;;;;;;;4.72;2.95;;;;;;;16.82;100.00;100207.31;4993456;28;20026;-96